To NAV CANADA Home Page Login to a new session Search on AWWS site Feedback and Comments Disclaimer Vers la page française équivalente Tips FAQ What's new on the site To the Forecasts and Observations / NOTAM section To "File a Flight Plan" website Publications and other links Update of the User's profile FIC Telephone Numbers My Weather Data Folder Route Weather Data Regional Weather Data Local Weather Data To the Forecasts and Observations / NOTAM section
Request Generated 10/18/2017 at 03:51:46 UTC . Weather information available at that time is displayed.


Go to a specific product

Save this request - Inactive

METAR/TAF

OTTAWA/GATINEAU/QC    

LWIS CYND 180300Z AUTO 25006KT 12/09 A3000=
LWIS CYND 180200Z AUTO 25008KT 14/09 A3000=
METAR CYND 180100Z 23012KT 15SM FEW080 SCT200 14/09 A2998 RMK AC2CI2
LAST STFD OBS/NEXT 181100 UTC SLP157=

*** REMARK        : Forecast period has ended; this was the last TAF issued
*** REMARQUE : La période de prévision est échue; ceci était le dernier TAF qui a été émis
TAF AMD CYND 172005Z 1720/1801 20010G20KT P6SM FEW040 BKN200
BECMG 1722/1724 22010KT
RMK NXT FCST WILL BE ISSUED AT 181245Z=

OTTAWA/MACDONALD-CARTIER INTL/ON    

METAR CYOW 180300Z 23012G18KT 15SM FEW160 13/09 A3002 RMK AC2 SLP170=
METAR CYOW 180200Z 23012G20KT 14SM BKN170 14/08 A3002 RMK AC7 SLP171=
METAR CYOW 180100Z 21012G20KT 15SM SCT070 14/08 A3001 RMK AC4 SLP167=

TAF CYOW 180238Z 1803/1824 23012KT P6SM BKN180
FM180900 VRB03KT P6SM FEW120 PROB30 1809/1814 1SM BR
FM181400 20006KT P6SM SKC
BECMG 1818/1820 20010G20KT
BECMG 1822/1824 20008KT
RMK NXT FCST BY 180600Z=


GRAPHICAL FA CLOUDS & WEATHER FORECASTS
To the Product Selector
Graphical FA gfacn33      

GRAPHICAL FA ICING, TURBULENCE & FREEZING LEVEL FORECASTS
To the Product Selector
Graphical FA gfacn33      

FDTEXT Low Level FD. Temperatures are not forecast for the 3,000-foot level.
To the Product Selector
STN YOW - OTTAWA. ONT for use 3000 6000 9000 12000 18000
FDCN01 CWAO FCST BASED ON 180000 DATA VALID 180600 05-09 3126 2926+04 2938-01 3045-07 3070-16
FDCN02 CWAO FCST BASED ON 180000 DATA VALID 181200 09-18 2917 3025+06 3029+00 3135-05 3048-14
FDCN03 CWAO FCST BASED ON 180000 DATA VALID 190000 18-05 2432 2627+10 2631+03 2733-01 2729-12



Your time UTC time
Weather data provided by Environment Canada and NAV CANADA